METAR AND TAF INFORMATION
METAR FOR WARR
ADDS - METARS form results

(0958 UTC 24 May 2018)
Data provider http://aviationweather.gov/adds/metars/
 
Forecast for: WARR (JUANDA , ID)
Text: TAF WARR 240500Z 2406/2506 10010KT 9999 FEW020
Forecast period: 0600 to 1400 UTC 24 May 2018
Forecast type: FROM: standard forecast or significant change
Winds: from the E (100 degrees) at 12 MPH (10 knots; 5.2 m/s)
Visibility: 6 or more miles (10+ km)
Clouds: few clouds at 2000 feet AGL
Weather: no significant weather forecast for this period
Forecast for: WARR (JUANDA , ID)
Text: TAF WARR 240500Z 2406/2506 10010KT 9999 FEW020
Forecast period: 0600 to 1400 UTC 24 May 2018
Forecast type: FROM: standard forecast or significant change
Winds: from the E (100 degrees) at 12 MPH (10 knots; 5.2 m/s)
Visibility: 6 or more miles (10+ km)
Clouds: few clouds at 2000 feet AGL
Weather: no significant weather forecast for this period
Forecast for: WARR (JUANDA , ID)
Text: TAF WARR 240500Z 2406/2506 10010KT 9999 FEW020
Forecast period: 1400 UTC 24 May 2018 to 0000 UTC 25 May 2018
Forecast type: BECOMING: Conditions expected to become as follows by 1600 UTC 24 May 2018
Winds: from the W (260 degrees) at 5 MPH (4 knots; 2.1 m/s)
Visibility: 3 miles (5 km)
Clouds: few clouds at 2000 feet AGL
Weather: HZ  (haze)
Forecast for: WARR (JUANDA , ID)
Text: TAF WARR 240500Z 2406/2506 10010KT 9999 FEW020
Forecast period: 1400 UTC 24 May 2018 to 0000 UTC 25 May 2018
Forecast type: BECOMING: Conditions expected to become as follows by 1600 UTC 24 May 2018
Winds: from the W (260 degrees) at 5 MPH (4 knots; 2.1 m/s)
Visibility: 3 miles (5 km)
Clouds: few clouds at 2000 feet AGL
Weather: HZ  (haze)
Forecast for: WARR (JUANDA , ID)
Text: TAF WARR 240500Z 2406/2506 10010KT 9999 FEW020
Forecast period: 0000 to 0600 UTC 25 May 2018
Forecast type: BECOMING: Conditions expected to become as follows by 0200 UTC 25 May 2018
Winds: from the E (100 degrees) at 12 MPH (10 knots; 5.2 m/s)
Visibility: 6 or more miles (10+ km)
Clouds: few clouds at 2000 feet AGL
Weather: NSW  (no significant weather)
Forecast for: WARR (JUANDA , ID)
Text: TAF WARR 240500Z 2406/2506 10010KT 9999 FEW020
Forecast period: 0000 to 0600 UTC 25 May 2018
Forecast type: BECOMING: Conditions expected to become as follows by 0200 UTC 25 May 2018
Winds: from the E (100 degrees) at 12 MPH (10 knots; 5.2 m/s)
Visibility: 6 or more miles (10+ km)
Clouds: few clouds at 2000 feet AGL
Weather: NSW  (no significant weather)

 AIRPORT MAP

 RUNWAY INFORMATION
Runway 10 Runway length 9843 ft Runway width 148 ft
Runway elevation 11 ft Runway displaced threshold 0 ft Runway heading 99
Runway 28 Runway length 9843 ft Runway width 148 ft
Runway elevation 8 ft Runway displaced threshold 0 ft Runway heading 279

 AIRPORT FREQUENCIES
Type ATIS Name ATIS Frequency 128.2 MHZ
Type DIR Name Surabaya D Frequency 123.2 MHZ
Type DIR Name Surabaya D Frequency 125.1 MHZ
Type SMC Name Ground Con Frequency 119.15 MHZ
Type TCA Name Surabaya C Frequency 123.55 MHZ
Type TCA Name Surabaya C Frequency 124 MHZ
Type TWR Name Tower - Se Frequency 118.1 MHZ
Type TWR Name Tower - Pr Frequency 118.3 MHZ

 AIRPORT NEAR NAVIGATION AIDS
Type NDB Name Surabaya Frequency 325 KHZ
Type VOR-DME Name Surabaya Frequency 113400 KHZ
Type NDB Name Surabaya Frequency 400 KHZ



Powered by Virtual Airlines Manager [v2.6.2]